Time;durP1;ratioP1;P1;durP2;ratioP2;P2;SDS_P1;SDS_P2;PMS_P1;PMS_P2;Temp;Humidity;BMP_temperature;BMP_pressure;BME280_temperature;BME280_humidity;BME280_pressure;Samples;Min_cycle;Max_cycle;Signal;HPM_P1;HPM_P2
2023/06/14 00:14:50;;;;;;;5.40;3.40;;;16.20;90.60;;;;;;5052661;28;20275;-60
2023/06/14 00:17:17;;;;;;;6.13;2.73;;;16.10;91.40;;;;;;5074241;28;20198;-61
2023/06/14 00:19:44;;;;;;;3.23;3.13;;;16.00;91.70;;;;;;5078630;28;20196;-61
2023/06/14 00:22:12;;;;;;;4.67;3.70;;;15.90;92.80;;;;;;5073168;28;20220;-61
2023/06/14 00:24:38;;;;;;;4.07;3.87;;;15.80;92.40;;;;;;5083219;28;20295;-60
2023/06/14 00:27:07;;;;;;;3.67;3.33;;;15.80;92.40;;;;;;5079942;28;20254;-60
2023/06/14 00:29:34;;;;;;;4.00;3.50;;;15.80;92.70;;;;;;5080849;28;20237;-60
2023/06/14 00:32:02;;;;;;;3.80;3.50;;;15.80;93.20;;;;;;5071121;28;20240;-60
2023/06/14 00:34:29;;;;;;;3.80;2.93;;;15.80;92.60;;;;;;5081761;28;20578;-60
2023/06/14 00:36:56;;;;;;;4.10;2.73;;;15.80;92.50;;;;;;5091471;28;20249;-61
2023/06/14 00:39:23;;;;;;;4.20;3.90;;;15.80;92.40;;;;;;5091511;28;20567;-60
2023/06/14 00:41:49;;;;;;;3.13;3.03;;;15.80;92.60;;;;;;5080696;28;20209;-60
2023/06/14 00:44:18;;;;;;;3.47;3.23;;;15.90;92.40;;;;;;5070487;28;20213;-60
2023/06/14 00:46:46;;;;;;;3.60;3.40;;;15.80;93.50;;;;;;5078954;28;20207;-60
2023/06/14 00:49:16;;;;;;;3.77;3.57;;;15.80;93.80;;;;;;5076577;28;20238;-60
2023/06/14 00:51:43;;;;;;;4.07;3.00;;;15.80;93.10;;;;;;5076721;28;20201;-60
2023/06/14 00:54:10;;;;;;;4.57;4.23;;;15.80;93.10;;;;;;5064786;28;20270;-60
2023/06/14 00:56:38;;;;;;;3.97;3.77;;;15.80;93.10;;;;;;5089154;28;20261;-60
2023/06/14 00:59:05;;;;;;;4.23;3.90;;;15.70;94.70;;;;;;5091291;28;20674;-60
2023/06/14 01:01:33;;;;;;;3.47;3.23;;;15.50;95.20;;;;;;5085379;28;20259;-60
2023/06/14 01:04:01;;;;;;;4.27;3.97;;;15.40;95.10;;;;;;5075504;28;20225;-60
2023/06/14 01:06:42;;;;;;;4.03;3.83;;;15.30;95.60;;;;;;5079336;28;20554;-61
2023/06/14 01:09:19;;;;;;;3.10;3.00;;;15.20;95.40;;;;;;5070495;28;20590;-60
2023/06/14 01:11:54;;;;;;;3.73;3.53;;;15.10;96.10;;;;;;5065429;28;20201;-60
2023/06/14 01:14:22;;;;;;;3.17;2.97;;;15.10;95.80;;;;;;5076076;28;20282;-60
2023/06/14 01:16:53;;;;;;;3.87;3.47;;;15.00;96.10;;;;;;5076498;28;20290;-60
2023/06/14 01:19:22;;;;;;;3.57;3.37;;;15.00;96.00;;;;;;5071010;28;20298;-60
2023/06/14 01:21:51;;;;;;;3.43;3.13;;;14.90;96.00;;;;;;5058001;28;20209;-60
2023/06/14 01:24:23;;;;;;;3.87;3.57;;;14.90;96.10;;;;;;5082312;28;20705;-60
2023/06/14 01:26:51;;;;;;;6.97;4.40;;;15.00;96.10;;;;;;5085893;28;20200;-60
2023/06/14 01:29:18;;;;;;;3.60;3.40;;;14.90;96.30;;;;;;5084121;28;20288;-60
2023/06/14 01:31:46;;;;;;;3.53;3.33;;;14.90;96.40;;;;;;5080125;28;20200;-60
2023/06/14 01:34:13;;;;;;;3.87;3.37;;;14.80;96.50;;;;;;5082113;28;20220;-60
2023/06/14 01:36:42;;;;;;;3.57;3.37;;;14.80;96.40;;;;;;5087121;28;20221;-60
2023/06/14 01:39:11;;;;;;;3.70;3.40;;;14.80;96.30;;;;;;5076418;28;20202;-60
2023/06/14 01:41:40;;;;;;;3.73;3.43;;;14.80;96.40;;;;;;5080044;28;20259;-60
2023/06/14 01:44:08;;;;;;;4.10;3.80;;;14.80;96.70;;;;;;5086149;28;20216;-60
2023/06/14 01:46:35;;;;;;;3.90;3.70;;;14.70;96.50;;;;;;5094508;28;20245;-60
2023/06/14 01:49:03;;;;;;;2.70;2.60;;;14.70;96.80;;;;;;5080916;28;20206;-60
2023/06/14 01:51:30;;;;;;;3.43;3.07;;;14.70;96.70;;;;;;5071262;28;20208;-60
2023/06/14 01:53:57;;;;;;;4.07;3.50;;;14.60;97.10;;;;;;5073766;28;20221;-60
2023/06/14 01:56:24;;;;;;;3.87;3.57;;;14.60;97.50;;;;;;5070839;28;20217;-60
2023/06/14 01:58:53;;;;;;;3.20;2.90;;;14.50;97.20;;;;;;5086061;28;20673;-60
2023/06/14 02:01:21;;;;;;;3.83;3.47;;;14.50;97.00;;;;;;5082027;28;20303;-60
2023/06/14 02:03:49;;;;;;;3.53;3.33;;;14.40;97.30;;;;;;5069712;28;20221;-60
2023/06/14 02:06:16;;;;;;;3.93;2.97;;;14.40;97.80;;;;;;5082379;28;20281;-61
2023/06/14 02:08:43;;;;;;;2.97;2.77;;;14.40;97.30;;;;;;5074195;28;20277;-60
2023/06/14 02:11:10;;;;;;;3.57;3.27;;;14.40;97.30;;;;;;5074045;28;20204;-60
2023/06/14 02:13:37;;;;;;;4.17;3.87;;;14.40;97.30;;;;;;5072733;28;20670;-60
2023/06/14 02:16:05;;;;;;;3.73;3.43;;;14.40;97.80;;;;;;5085076;28;20274;-60
2023/06/14 02:18:33;;;;;;;3.60;3.40;;;14.40;98.10;;;;;;5082917;28;20209;-59
2023/06/14 02:21:00;;;;;;;3.20;3.00;;;14.40;97.90;;;;;;5085304;28;20200;-60
2023/06/14 02:23:27;;;;;;;3.67;3.43;;;14.40;98.00;;;;;;5078917;28;20243;-60
2023/06/14 02:25:53;;;;;;;3.43;3.13;;;14.30;98.30;;;;;;5078696;28;20193;-60
2023/06/14 02:28:20;;;;;;;3.63;3.43;;;14.30;98.10;;;;;;5080181;28;20254;-60
2023/06/14 02:30:48;;;;;;;3.90;2.83;;;14.30;97.70;;;;;;5073540;28;20636;-60
2023/06/14 02:33:17;;;;;;;3.50;3.30;;;14.30;97.90;;;;;;5070844;28;20197;-60
2023/06/14 02:35:44;;;;;;;3.67;3.33;;;14.20;98.70;;;;;;5077866;28;20271;-60
2023/06/14 02:38:11;;;;;;;3.00;2.90;;;14.20;98.90;;;;;;5073974;28;20196;-60
2023/06/14 02:40:38;;;;;;;3.27;3.17;;;14.10;98.80;;;;;;5085236;28;20197;-60
2023/06/14 02:43:05;;;;;;;3.17;2.97;;;14.10;99.50;;;;;;5074712;28;20197;-60
2023/06/14 02:45:32;;;;;;;3.57;3.00;;;14.10;98.90;;;;;;5067868;28;20218;-60
2023/06/14 02:47:59;;;;;;;4.23;3.37;;;14.00;99.20;;;;;;5053229;28;20202;-60
2023/06/14 02:50:28;;;;;;;3.70;3.43;;;14.00;99.30;;;;;;5060533;28;20254;-60
2023/06/14 02:52:56;;;;;;;3.10;3.00;;;14.00;99.20;;;;;;5074275;28;20229;-60
2023/06/14 02:55:24;;;;;;;3.37;3.20;;;13.90;99.40;;;;;;5079364;28;20262;-60
2023/06/14 02:57:50;;;;;;;2.50;2.40;;;13.90;99.00;;;;;;5073416;28;20304;-60
2023/06/14 03:00:19;;;;;;;3.17;2.97;;;13.90;99.60;;;;;;5071471;28;20632;-60
2023/06/14 03:02:46;;;;;;;3.03;2.83;;;13.90;99.20;;;;;;5073573;28;20586;-60
2023/06/14 03:05:14;;;;;;;3.40;3.10;;;13.80;99.30;;;;;;5088577;28;20598;-60
2023/06/14 03:07:44;;;;;;;3.03;2.83;;;13.80;99.40;;;;;;5072799;28;20215;-60
2023/06/14 03:10:12;;;;;;;3.03;2.77;;;13.80;99.40;;;;;;5072998;28;20205;-60
2023/06/14 03:12:40;;;;;;;3.93;3.60;;;13.80;99.10;;;;;;5079803;28;20203;-60
2023/06/14 03:15:08;;;;;;;3.10;2.90;;;13.80;99.40;;;;;;5068047;28;20275;-60
2023/06/14 03:17:38;;;;;;;3.83;3.50;;;13.80;99.90;;;;;;5075839;28;20203;-60
2023/06/14 03:20:08;;;;;;;3.53;3.33;;;13.80;99.90;;;;;;5092873;28;20201;-60
2023/06/14 03:22:35;;;;;;;3.20;3.00;;;13.70;99.90;;;;;;5087079;28;20333;-61
2023/06/14 03:25:04;;;;;;;3.53;3.33;;;13.80;99.90;;;;;;5084276;28;20742;-60
2023/06/14 03:27:31;;;;;;;4.40;3.70;;;13.70;99.90;;;;;;5073174;28;20221;-60
2023/06/14 03:29:58;;;;;;;3.70;3.43;;;13.70;99.90;;;;;;5070138;28;20262;-60
2023/06/14 03:32:25;;;;;;;3.30;3.00;;;13.70;99.90;;;;;;5081455;28;20277;-60
2023/06/14 03:34:53;;;;;;;2.97;2.80;;;13.60;99.90;;;;;;5083926;28;20228;-60
2023/06/14 03:37:23;;;;;;;3.63;3.30;;;13.60;99.90;;;;;;5081093;28;20253;-60
2023/06/14 03:39:50;;;;;;;3.77;3.47;;;13.60;99.90;;;;;;5072032;28;20203;-60
2023/06/14 03:42:21;;;;;;;4.40;3.47;;;13.60;99.90;;;;;;5080131;28;20201;-60
2023/06/14 03:44:48;;;;;;;3.63;3.43;;;13.60;99.90;;;;;;5092265;28;20238;-60
2023/06/14 03:47:17;;;;;;;3.77;3.57;;;13.60;99.90;;;;;;5092789;28;20200;-60
2023/06/14 03:49:44;;;;;;;3.63;3.43;;;13.60;99.90;;;;;;5092450;28;20197;-60
2023/06/14 03:52:11;;;;;;;6.17;3.80;;;13.60;99.90;;;;;;5083568;28;20194;-60
2023/06/14 03:54:38;;;;;;;4.23;2.87;;;13.60;99.90;;;;;;5071704;28;20232;-60
2023/06/14 03:57:06;;;;;;;3.47;3.17;;;13.70;99.90;;;;;;5083818;28;20666;-60
2023/06/14 03:59:35;;;;;;;5.80;3.60;;;13.70;99.90;;;;;;5074478;28;20608;-60
2023/06/14 04:02:02;;;;;;;3.20;2.90;;;13.70;99.90;;;;;;5068333;28;20704;-60
2023/06/14 04:04:29;;;;;;;5.90;3.77;;;13.70;99.90;;;;;;5088712;28;20224;-60
2023/06/14 04:06:58;;;;;;;2.93;2.63;;;13.70;99.90;;;;;;5080376;28;20285;-60
2023/06/14 04:09:25;;;;;;;2.70;2.50;;;13.70;99.90;;;;;;5071487;28;20201;-60
2023/06/14 04:11:53;;;;;;;3.83;3.53;;;13.80;99.90;;;;;;5071398;28;20671;-60
2023/06/14 04:14:20;;;;;;;4.03;3.33;;;13.80;99.90;;;;;;5082740;28;20299;-60
2023/06/14 04:16:49;;;;;;;4.90;4.03;;;13.80;99.90;;;;;;5070964;28;20224;-60
2023/06/14 04:19:17;;;;;;;6.77;3.33;;;13.90;99.90;;;;;;5058848;28;20194;-60
2023/06/14 04:21:44;;;;;;;3.97;3.50;;;14.10;99.90;;;;;;5052961;28;20283;-60
2023/06/14 04:24:12;;;;;;;3.57;3.37;;;14.20;99.90;;;;;;5073963;28;20223;-60
2023/06/14 04:26:40;;;;;;;3.30;3.10;;;14.20;99.90;;;;;;5079691;28;20284;-60
2023/06/14 04:29:07;;;;;;;3.60;3.40;;;14.30;99.90;;;;;;5071438;28;20242;-60
2023/06/14 04:31:37;;;;;;;3.20;2.80;;;14.30;99.90;;;;;;5070316;28;20667;-60
2023/06/14 04:34:06;;;;;;;3.37;3.13;;;14.40;99.70;;;;;;5059658;28;20224;-60
2023/06/14 04:36:34;;;;;;;3.13;2.83;;;14.40;99.30;;;;;;5084945;28;20252;-60
2023/06/14 04:39:03;;;;;;;3.97;3.60;;;14.40;99.00;;;;;;5087805;28;20193;-61
2023/06/14 04:41:31;;;;;;;5.63;3.97;;;14.50;99.80;;;;;;5071210;28;20247;-60
2023/06/14 04:44:01;;;;;;;2.93;2.63;;;14.60;99.90;;;;;;5073834;28;20690;-60
2023/06/14 04:46:28;;;;;;;3.73;3.43;;;14.60;99.90;;;;;;5068314;28;20193;-60
2023/06/14 04:48:56;;;;;;;3.40;3.10;;;14.70;99.90;;;;;;5078446;28;20254;-60
2023/06/14 04:51:29;;;;;;;3.57;3.33;;;14.90;97.70;;;;;;5055116;28;20209;-60
2023/06/14 04:53:58;;;;;;;5.23;3.73;;;15.20;97.30;;;;;;5068702;28;20225;-60
2023/06/14 04:56:26;;;;;;;6.47;3.80;;;15.30;96.80;;;;;;5082147;28;20215;-60
2023/06/14 04:58:53;;;;;;;5.70;3.30;;;15.50;96.70;;;;;;5082956;28;20572;-60
2023/06/14 05:01:20;;;;;;;4.27;3.87;;;15.70;96.50;;;;;;5091529;28;20218;-60
2023/06/14 05:03:49;;;;;;;4.00;3.77;;;15.80;96.60;;;;;;5067184;28;20737;-60
2023/06/14 05:06:17;;;;;;;3.27;2.93;;;15.90;96.60;;;;;;5077419;28;20205;-60
2023/06/14 05:08:45;;;;;;;3.50;3.20;;;16.00;96.70;;;;;;5074333;28;20193;-60
2023/06/14 05:11:12;;;;;;;4.20;3.97;;;16.10;97.00;;;;;;5069895;28;20201;-60
2023/06/14 05:13:40;;;;;;;5.17;3.70;;;16.40;96.60;;;;;;5079047;28;20562;-60
2023/06/14 05:16:08;;;;;;;4.07;3.77;;;16.80;96.10;;;;;;5069970;28;20583;-60
2023/06/14 05:18:35;;;;;;;4.60;4.20;;;17.50;95.80;;;;;;5079318;28;20243;-60
2023/06/14 05:21:03;;;;;;;3.83;3.53;;;18.20;94.80;;;;;;5074914;28;20518;-60
2023/06/14 05:23:30;;;;;;;3.97;3.60;;;18.80;94.40;;;;;;5073660;28;20284;-60
2023/06/14 05:25:59;;;;;;;4.67;4.27;;;19.60;94.60;;;;;;5073753;28;20197;-60
2023/06/14 05:28:26;;;;;;;4.23;3.93;;;20.50;93.20;;;;;;5068338;28;20208;-60
2023/06/14 05:30:53;;;;;;;4.20;3.80;;;21.40;92.40;;;;;;5074092;28;20269;-60
2023/06/14 05:33:21;;;;;;;5.73;4.07;;;22.20;91.70;;;;;;5059128;28;20592;-60
2023/06/14 05:35:48;;;;;;;3.90;3.10;;;23.00;90.10;;;;;;5065399;28;20705;-61
2023/06/14 05:38:18;;;;;;;7.80;3.50;;;23.30;89.30;;;;;;5065216;28;20213;-61
2023/06/14 05:40:46;;;;;;;3.77;3.60;;;23.80;89.00;;;;;;5061590;28;20216;-61
2023/06/14 05:43:14;;;;;;;4.43;4.03;;;24.30;89.00;;;;;;5074299;28;20262;-60
2023/06/14 05:45:41;;;;;;;7.00;4.60;;;24.60;86.40;;;;;;5074297;28;20228;-61
2023/06/14 05:48:08;;;;;;;5.90;5.27;;;24.60;87.50;;;;;;5063770;28;20192;-61
2023/06/14 05:50:35;;;;;;;3.87;3.67;;;24.40;88.90;;;;;;5087350;28;20220;-61
2023/06/14 05:53:05;;;;;;;3.93;3.73;;;24.80;87.30;;;;;;5074688;28;20205;-61
2023/06/14 05:55:32;;;;;;;6.03;5.13;;;25.10;88.40;;;;;;5039602;28;20249;-61
2023/06/14 05:57:59;;;;;;;6.60;6.00;;;25.20;88.40;;;;;;5066587;28;20235;-61
2023/06/14 06:00:28;;;;;;;4.17;3.77;;;25.30;89.10;;;;;;5071987;28;20670;-61
2023/06/14 06:02:57;;;;;;;3.70;3.60;;;25.80;86.40;;;;;;5093977;28;20203;-60
2023/06/14 06:05:24;;;;;;;4.87;3.90;;;26.40;84.90;;;;;;5076458;28;20571;-61
2023/06/14 06:07:51;;;;;;;4.17;3.87;;;27.10;83.60;;;;;;5056527;28;20547;-61
2023/06/14 06:10:18;;;;;;;6.47;4.43;;;27.30;83.70;;;;;;5072764;28;20197;-60
2023/06/14 06:12:47;;;;;;;4.17;3.77;;;27.50;83.60;;;;;;5081179;28;20299;-61
2023/06/14 06:15:14;;;;;;;4.23;3.87;;;27.50;83.90;;;;;;5065850;28;20278;-61
2023/06/14 06:17:42;;;;;;;4.97;4.03;;;27.60;83.30;;;;;;5075654;28;20308;-60
2023/06/14 06:20:11;;;;;;;4.40;3.43;;;27.60;80.40;;;;;;5074757;28;20257;-62
2023/06/14 06:22:38;;;;;;;4.30;4.10;;;27.20;85.20;;;;;;5077369;28;20211;-62
2023/06/14 06:25:06;;;;;;;4.80;4.50;;;26.90;85.10;;;;;;5067092;28;20224;-61
2023/06/14 06:27:33;;;;;;;5.30;4.90;;;26.90;82.20;;;;;;5067120;28;20251;-61
2023/06/14 06:30:00;;;;;;;4.23;3.87;;;26.90;82.50;;;;;;5069086;28;20197;-62
2023/06/14 06:32:27;;;;;;;5.07;3.90;;;27.50;82.70;;;;;;5072133;28;20197;-62
2023/06/14 06:34:55;;;;;;;4.43;4.13;;;27.60;80.40;;;;;;5065837;28;20225;-62
2023/06/14 06:37:23;;;;;;;5.30;4.77;;;27.10;82.10;;;;;;5075540;28;20213;-61
2023/06/14 06:39:50;;;;;;;5.70;4.30;;;26.80;81.30;;;;;;5074190;28;20205;-62
2023/06/14 06:42:21;;;;;;;5.10;4.20;;;27.20;88.20;;;;;;5065324;28;20264;-61
2023/06/14 06:44:47;;;;;;;5.85;4.00;;;27.30;83.50;;;;;;5069478;28;20221;-62
2023/06/14 06:47:18;;;;;;;5.25;4.75;;;27.70;82.50;;;;;;5075525;28;20246;-61
2023/06/14 06:49:45;;;;;;;5.23;4.83;;;27.20;81.00;;;;;;5078564;28;20565;-61
2023/06/14 06:52:13;;;;;;;4.90;4.47;;;27.40;81.30;;;;;;5074267;28;20196;-62
2023/06/14 06:54:40;;;;;;;4.60;4.28;;;27.20;84.90;;;;;;5073448;28;20278;-61
2023/06/14 06:57:07;;;;;;;4.85;4.32;;;28.00;80.30;;;;;;5079547;28;20249;-62
2023/06/14 06:59:35;;;;;;;4.50;4.05;;;28.50;79.40;;;;;;5066959;28;20255;-62
2023/06/14 07:02:02;;;;;;;5.03;4.60;;;28.50;78.90;;;;;;5060705;28;20205;-61
2023/06/14 07:04:29;;;;;;;5.55;5.18;;;29.20;77.40;;;;;;5058668;28;20225;-61
2023/06/14 07:06:56;;;;;;;4.30;4.05;;;28.90;80.20;;;;;;5074521;28;20290;-61
2023/06/14 07:09:25;;;;;;;4.70;4.30;;;28.90;76.30;;;;;;5080982;28;20196;-61
2023/06/14 07:11:52;;;;;;;4.87;4.57;;;28.60;81.80;;;;;;5089021;28;20216;-61
2023/06/14 07:14:19;;;;;;;4.68;4.25;;;28.80;82.40;;;;;;5092770;28;20220;-62
2023/06/14 07:16:46;;;;;;;4.88;4.32;;;28.80;79.40;;;;;;5074494;28;20216;-61
2023/06/14 07:19:13;;;;;;;7.83;4.07;;;28.70;78.00;;;;;;5072797;28;20201;-61
2023/06/14 07:21:40;;;;;;;4.57;4.22;;;28.90;78.10;;;;;;5071723;28;20201;-61
2023/06/14 07:24:07;;;;;;;4.25;3.95;;;29.40;77.80;;;;;;5071717;28;20283;-61
2023/06/14 07:26:36;;;;;;;6.43;4.70;;;30.00;75.20;;;;;;5072774;28;20197;-61
2023/06/14 07:29:03;;;;;;;4.20;3.97;;;30.10;75.50;;;;;;5072433;28;20205;-61
2023/06/14 07:31:30;;;;;;;4.95;4.68;;;30.00;76.10;;;;;;5072567;28;20566;-61
2023/06/14 07:33:57;;;;;;;4.18;3.78;;;30.30;76.00;;;;;;5071280;28;20718;-63
2023/06/14 07:36:24;;;;;;;3.75;3.55;;;29.90;76.30;;;;;;5071768;28;20344;-63
2023/06/14 07:38:51;;;;;;;4.55;4.25;;;30.00;82.90;;;;;;5065450;28;20271;-63
2023/06/14 07:41:18;;;;;;;4.65;4.35;;;30.30;80.20;;;;;;5065758;28;20268;-63
2023/06/14 07:43:47;;;;;;;4.85;4.50;;;30.30;80.60;;;;;;5066070;28;20270;-63
2023/06/14 07:46:15;;;;;;;4.63;4.32;;;30.30;76.90;;;;;;5072333;28;20232;-63
2023/06/14 07:48:42;;;;;;;4.60;4.28;;;30.20;77.10;;;;;;5055745;28;20208;-63
2023/06/14 07:51:09;;;;;;;4.88;4.47;;;29.50;77.80;;;;;;5061618;28;20193;-62
2023/06/14 07:53:36;;;;;;;4.38;4.07;;;29.50;79.10;;;;;;5055492;28;20668;-63
2023/06/14 07:56:04;;;;;;;4.78;4.47;;;27.90;78.60;;;;;;5069306;28;20205;-63
2023/06/14 07:58:31;;;;;;;5.00;4.60;;;28.40;83.20;;;;;;5089208;28;20220;-63
2023/06/14 08:01:01;;;;;;;3.97;3.70;;;29.20;79.50;;;;;;5081801;28;20197;-63
2023/06/14 08:03:28;;;;;;;4.80;4.47;;;29.40;79.70;;;;;;5071076;28;20201;-63
2023/06/14 08:05:56;;;;;;;5.32;4.93;;;28.70;80.30;;;;;;5082609;28;20201;-62
2023/06/14 08:08:23;;;;;;;6.07;4.45;;;29.50;76.60;;;;;;5071617;28;20275;-63
2023/06/14 08:10:50;;;;;;;4.30;3.92;;;29.90;74.90;;;;;;5089736;28;20196;-63
2023/06/14 08:13:17;;;;;;;4.97;4.57;;;30.60;74.20;;;;;;5076110;28;20470;-66
2023/06/14 08:15:44;;;;;;;4.30;3.92;;;30.20;74.10;;;;;;5053360;28;20205;-68
2023/06/14 08:18:13;;;;;;;8.73;4.00;;;30.50;73.10;;;;;;5051650;28;20221;-69
2023/06/14 08:20:41;;;;;;;5.63;5.15;;;30.60;74.20;;;;;;5053419;28;20197;-67
2023/06/14 08:23:08;;;;;;;5.35;5.05;;;30.70;72.60;;;;;;5061080;28;20288;-60
2023/06/14 08:25:36;;;;;;;3.92;3.72;;;31.00;75.00;;;;;;5079605;28;20224;-60
2023/06/14 08:28:03;;;;;;;4.20;3.97;;;31.00;71.60;;;;;;5071436;28;20215;-60
2023/06/14 08:30:30;;;;;;;5.43;4.97;;;31.10;72.70;;;;;;5066028;28;20206;-60
2023/06/14 08:32:57;;;;;;;7.43;4.43;;;31.30;71.70;;;;;;5063335;28;20264;-60
2023/06/14 08:35:27;;;;;;;4.50;4.10;;;31.30;70.30;;;;;;5073190;28;20232;-60
2023/06/14 08:37:56;;;;;;;4.40;4.10;;;31.30;71.50;;;;;;5077428;28;20220;-60
2023/06/14 08:40:24;;;;;;;4.18;3.97;;;31.10;69.70;;;;;;5059118;28;20205;-59
2023/06/14 08:42:53;;;;;;;3.47;3.38;;;31.30;75.00;;;;;;5056041;28;20201;-61
2023/06/14 08:45:21;;;;;;;3.60;3.30;;;31.60;69.30;;;;;;5070590;28;20221;-59
2023/06/14 08:47:51;;;;;;;3.90;3.60;;;32.00;69.70;;;;;;5074764;28;20291;-59
2023/06/14 08:50:26;;;;;;;3.78;3.47;;;30.40;69.10;;;;;;5074195;28;20571;-59
2023/06/14 08:52:57;;;;;;;3.97;3.67;;;30.80;73.90;;;;;;5070275;28;20205;-60
2023/06/14 08:55:26;;;;;;;5.05;3.80;;;30.50;68.80;;;;;;5078697;28;20217;-59
2023/06/14 08:57:55;;;;;;;4.20;3.80;;;30.00;66.70;;;;;;5067509;28;20221;-59
2023/06/14 09:00:24;;;;;;;3.88;3.67;;;30.00;72.00;;;;;;5060793;28;20198;-59
2023/06/14 09:02:55;;;;;;;3.75;3.65;;;29.60;73.80;;;;;;5068368;28;20212;-60
2023/06/14 09:05:23;;;;;;;3.88;3.67;;;28.90;69.40;;;;;;5066528;28;20224;-59
2023/06/14 09:07:51;;;;;;;5.47;3.70;;;29.10;70.60;;;;;;5081608;28;20573;-59
2023/06/14 09:10:21;;;;;;;5.38;3.60;;;30.30;68.60;;;;;;5085152;28;20212;-59
2023/06/14 09:12:48;;;;;;;3.70;3.40;;;30.50;70.10;;;;;;5068108;28;20791;-59
2023/06/14 09:15:16;;;;;;;4.00;3.70;;;30.60;69.40;;;;;;5060086;28;20312;-68
2023/06/14 09:17:44;;;;;;;3.95;3.75;;;30.70;69.80;;;;;;5071263;28;20726;-59
2023/06/14 09:20:13;;;;;;;4.28;3.97;;;31.00;71.90;;;;;;5082082;28;20279;-58
2023/06/14 09:22:41;;;;;;;3.95;3.65;;;31.20;68.60;;;;;;5079888;28;20330;-59
2023/06/14 09:25:08;;;;;;;4.47;3.75;;;30.60;70.00;;;;;;5070709;28;20221;-59
2023/06/14 09:27:39;;;;;;;3.70;3.40;;;30.80;68.90;;;;;;5071174;28;20208;-59
2023/06/14 09:30:09;;;;;;;4.15;3.78;;;30.80;66.80;;;;;;5074723;28;20216;-59
2023/06/14 09:32:39;;;;;;;3.70;3.25;;;31.30;68.00;;;;;;5069394;28;20201;-59
2023/06/14 09:35:07;;;;;;;4.07;3.88;;;30.90;68.80;;;;;;5082118;28;20852;-59
2023/06/14 09:37:35;;;;;;;4.20;3.83;;;31.00;67.20;;;;;;5077779;28;20225;-59
2023/06/14 09:40:04;;;;;;;3.67;3.30;;;31.00;67.20;;;;;;5085780;28;20197;-59
2023/06/14 09:42:31;;;;;;;5.07;4.72;;;31.20;67.50;;;;;;5089067;28;20287;-59
2023/06/14 09:45:00;;;;;;;4.50;4.13;;;31.30;66.30;;;;;;5070184;28;20706;-59
2023/06/14 09:47:27;;;;;;;3.80;3.50;;;31.60;72.10;;;;;;5068954;28;20242;-59
2023/06/14 09:49:54;;;;;;;3.40;3.30;;;31.10;73.40;;;;;;5070500;28;20209;-58
2023/06/14 09:52:26;;;;;;;4.75;3.50;;;31.70;67.90;;;;;;5070411;28;20205;-59
2023/06/14 09:54:55;;;;;;;4.13;3.83;;;31.70;69.70;;;;;;5068554;28;20650;-59
2023/06/14 09:57:26;;;;;;;4.22;3.40;;;31.20;68.90;;;;;;5069976;28;20254;-58
2023/06/14 09:59:58;;;;;;;5.95;3.75;;;31.60;77.00;;;;;;5070349;28;20561;-59
2023/06/14 10:02:31;;;;;;;3.67;3.47;;;31.70;70.40;;;;;;5072083;28;20254;-58
2023/06/14 10:05:06;;;;;;;5.88;3.90;;;31.80;69.00;;;;;;5064368;28;20221;-58
2023/06/14 10:07:36;;;;;;;3.40;3.10;;;31.50;66.90;;;;;;5069067;28;20562;-59
2023/06/14 10:10:04;;;;;;;4.15;3.90;;;31.90;70.00;;;;;;5073009;28;20547;-59
2023/06/14 10:12:32;;;;;;;4.18;3.97;;;32.30;63.90;;;;;;5065448;28;20202;-58
2023/06/14 10:15:01;;;;;;;5.47;3.72;;;32.10;71.50;;;;;;5061394;28;20298;-58
2023/06/14 10:17:39;;;;;;;3.80;3.70;;;32.20;68.60;;;;;;5075582;28;20284;-58
2023/06/14 10:20:18;;;;;;;2.97;2.85;;;31.30;66.30;;;;;;5073243;28;20196;-59
2023/06/14 10:22:58;;;;;;;4.03;3.78;;;31.70;65.90;;;;;;5058676;28;20201;-59
2023/06/14 10:25:29;;;;;;;3.50;3.30;;;31.50;67.30;;;;;;5053466;28;20324;-58
2023/06/14 10:28:17;;;;;;;3.45;3.35;;;31.10;71.30;;;;;;5053598;28;20767;-59
2023/06/14 10:31:05;;;;;;;4.35;4.07;;;30.60;72.60;;;;;;5065133;28;20670;-59
2023/06/14 10:33:34;;;;;;;4.43;3.75;;;30.20;73.00;;;;;;5056379;28;20238;-58
2023/06/14 10:36:26;;;;;;;3.30;3.20;;;30.60;69.30;;;;;;5066381;28;20229;-58
2023/06/14 10:38:59;;;;;;;3.88;3.42;;;30.00;70.30;;;;;;5057750;28;20229;-59
2023/06/14 10:41:28;;;;;;;6.90;3.45;;;30.10;66.20;;;;;;5060179;28;20239;-59
2023/06/14 10:44:32;;;;;;;3.92;3.63;;;30.50;67.50;;;;;;5085250;28;20220;-57
2023/06/14 10:47:00;;;;;;;4.60;4.22;;;30.60;71.50;;;;;;5099043;22;20636;-55
2023/06/14 10:49:43;;;;;;;3.25;3.15;;;30.60;72.30;;;;;;5081462;28;20196;-52
2023/06/14 10:52:16;;;;;;;4.40;4.18;;;29.80;69.50;;;;;;5077520;28;20675;-52
2023/06/14 10:54:59;;;;;;;4.20;3.75;;;29.40;71.30;;;;;;5092348;28;20231;-52
2023/06/14 10:57:26;;;;;;;3.75;3.40;;;28.90;67.80;;;;;;5072713;28;20267;-52
2023/06/14 10:59:54;;;;;;;5.22;3.88;;;28.90;72.60;;;;;;5073336;28;20224;-52
2023/06/14 11:02:47;;;;;;;5.38;3.60;;;29.00;76.90;;;;;;5084408;28;20188;-55
2023/06/14 11:05:17;;;;;;;4.35;4.07;;;28.50;74.70;;;;;;5054806;28;20262;-59
2023/06/14 11:07:56;;;;;;;3.85;3.55;;;28.60;79.80;;;;;;5063520;28;20318;-60
2023/06/14 11:10:34;;;;;;;3.60;3.40;;;28.20;74.70;;;;;;5079783;28;20569;-62
2023/06/14 11:13:01;;;;;;;4.70;3.97;;;28.00;71.90;;;;;;5070813;28;20197;-61
2023/06/14 11:15:31;;;;;;;3.70;3.40;;;28.10;67.90;;;;;;5062917;28;20647;-61
2023/06/14 11:18:00;;;;;;;3.97;3.78;;;28.10;76.00;;;;;;5088251;28;20260;-62
2023/06/14 11:20:32;;;;;;;3.83;3.63;;;28.20;76.20;;;;;;5063220;28;20566;-64
2023/06/14 11:22:59;;;;;;;3.53;3.23;;;27.80;74.50;;;;;;5071582;28;20254;-64
2023/06/14 11:25:28;;;;;;;6.27;3.73;;;27.60;78.80;;;;;;5076578;28;20201;-64
2023/06/14 11:27:55;;;;;;;4.30;3.97;;;27.50;77.50;;;;;;5077926;28;20207;-64
2023/06/14 11:30:23;;;;;;;4.07;3.85;;;27.40;74.50;;;;;;5070284;28;20583;-64
2023/06/14 11:32:51;;;;;;;4.27;3.70;;;27.50;73.80;;;;;;5059240;28;20271;-63
2023/06/14 11:35:19;;;;;;;4.18;3.97;;;27.50;69.80;;;;;;5054726;28;20197;-63
2023/06/14 11:37:47;;;;;;;3.73;3.30;;;27.30;68.80;;;;;;5053282;28;20205;-53
2023/06/14 11:40:14;;;;;;;3.60;3.50;;;27.40;70.20;;;;;;5063246;28;20727;-53
2023/06/14 11:42:42;;;;;;;4.00;3.70;;;27.20;71.10;;;;;;5069240;28;20297;-52
2023/06/14 11:45:10;;;;;;;4.45;4.25;;;27.10;69.70;;;;;;5066958;28;20201;-52
2023/06/14 11:47:39;;;;;;;4.30;4.10;;;27.10;72.20;;;;;;5068610;28;20281;-52
2023/06/14 11:50:08;;;;;;;4.13;3.80;;;26.80;74.60;;;;;;5079175;28;20200;-52
2023/06/14 11:52:35;;;;;;;4.70;3.47;;;26.80;75.70;;;;;;5077411;28;20204;-52
2023/06/14 11:55:05;;;;;;;4.00;3.80;;;26.90;74.40;;;;;;5072201;28;20255;-53
2023/06/14 11:57:35;;;;;;;3.60;3.30;;;26.80;73.30;;;;;;5061285;28;20301;-52
2023/06/14 12:00:07;;;;;;;3.50;3.40;;;26.90;74.70;;;;;;5066086;28;20224;-53
2023/06/14 12:02:34;;;;;;;5.40;3.73;;;26.80;74.30;;;;;;5077448;28;20802;-53
2023/06/14 12:05:07;;;;;;;3.77;3.47;;;26.90;74.30;;;;;;5075046;28;20201;-52
2023/06/14 12:07:34;;;;;;;3.97;3.67;;;27.00;78.70;;;;;;5072878;28;20228;-52
2023/06/14 12:10:10;;;;;;;3.90;3.50;;;27.00;72.80;;;;;;5087630;28;20670;-53
2023/06/14 12:12:40;;;;;;;4.30;3.90;;;26.90;76.40;;;;;;5069526;28;20253;-53
2023/06/14 12:15:09;;;;;;;3.63;2.97;;;27.00;75.90;;;;;;5075178;28;20230;-53
2023/06/14 12:17:38;;;;;;;3.93;3.83;;;26.80;75.50;;;;;;5074047;28;20228;-53
2023/06/14 12:20:13;;;;;;;4.50;3.27;;;26.40;76.40;;;;;;5071950;28;20271;-52
2023/06/14 12:22:41;;;;;;;3.60;3.03;;;26.50;75.80;;;;;;5080170;28;20212;-52
2023/06/14 12:25:09;;;;;;;3.60;3.27;;;26.20;68.70;;;;;;5051570;28;20255;-52
2023/06/14 12:27:40;;;;;;;4.23;3.83;;;26.10;69.20;;;;;;5058342;28;20730;-52
2023/06/14 12:30:09;;;;;;;4.20;3.80;;;26.30;74.10;;;;;;5066509;28;20248;-52
2023/06/14 12:32:36;;;;;;;4.93;4.17;;;26.40;73.30;;;;;;5071642;28;20205;-52
2023/06/14 12:35:03;;;;;;;3.20;3.10;;;26.40;73.20;;;;;;5060965;28;20254;-52
2023/06/14 12:37:29;;;;;;;4.93;3.30;;;26.20;68.90;;;;;;5071683;28;20286;-53
2023/06/14 12:39:56;;;;;;;3.03;2.93;;;26.20;69.80;;;;;;5082543;28;20249;-53
2023/06/14 12:42:25;;;;;;;3.70;3.47;;;26.40;69.10;;;;;;5060013;28;20193;-53
2023/06/14 12:44:52;;;;;;;4.03;3.70;;;26.40;68.60;;;;;;5067558;28;20228;-53
2023/06/14 12:47:19;;;;;;;5.07;3.57;;;26.00;70.80;;;;;;5077798;28;20821;-52
2023/06/14 12:49:46;;;;;;;3.37;3.20;;;26.20;70.90;;;;;;5073140;28;20201;-53
2023/06/14 12:52:13;;;;;;;3.67;3.43;;;26.00;69.70;;;;;;5081128;28;20264;-53
2023/06/14 12:54:40;;;;;;;3.77;3.43;;;26.10;73.00;;;;;;5058945;28;20259;-53
2023/06/14 12:57:08;;;;;;;4.67;4.37;;;26.10;73.30;;;;;;5069797;28;20305;-53
2023/06/14 12:59:36;;;;;;;3.57;3.30;;;26.20;69.80;;;;;;5083828;28;20228;-52
2023/06/14 13:02:20;;;;;;;3.50;3.20;;;26.30;73.30;;;;;;5061087;28;20198;-53
2023/06/14 13:04:47;;;;;;;4.23;3.83;;;26.30;72.10;;;;;;5072057;28;20225;-52
2023/06/14 13:07:14;;;;;;;4.00;3.80;;;26.30;70.50;;;;;;5080498;28;20212;-52
2023/06/14 13:09:41;;;;;;;3.87;3.60;;;26.30;76.70;;;;;;5052307;28;20226;-53